KAWM/AWM METAR and TAF weather

Enter ICAO airport designator
Station Type Date Time Source
KAWM METAR 2023/02/05 22:53 UTC NOAA

KAWM 052253Z AUTO 28004KT 10SM CLR 14/07 A3014 RMK AO2 SLP207 T01440072


Station Type Date Time Source
KAWM Decoded METAR 2023/02/05 22:53 UTC NOAA

WEST MEMPHIS MUNICIPAL AIRPORT, AR, United States (KAWM) 35-08N 090-14W
Feb 05, 2023 - 05:53 PM EST / 2023.02.05 2253 UTC
Wind: from the W (280 degrees) at 5 MPH (4 KT):0
Visibility: 10 mile(s):0
Sky conditions: clear
Temperature: 57.9 F (14.4 C)
Dew Point: 45.0 F (7.2 C)
Relative Humidity: 61%
Pressure (altimeter): 30.14 in. Hg (1020 hPa)
ob: KAWM 052253Z AUTO 28004KT 10SM CLR 14/07 A3014 RMK AO2 SLP207 T01440072
cycle: 23

Station Type Date Time Source
KAWM TAF UTC NOAA

Error!

Example: see airport list